sensor_id;sensor_type;location;lat;lon;timestamp;P1;durP1;ratioP1;P2;durP2;ratioP2
10882;SDS011;5494;51.796;10.952;2024-02-26T00:00:49;3.93;;;2.50;;
10882;SDS011;5494;51.796;10.952;2024-02-26T00:03:17;4.03;;;2.80;;
10882;SDS011;5494;51.796;10.952;2024-02-26T00:05:45;4.57;;;2.70;;
10882;SDS011;5494;51.796;10.952;2024-02-26T00:08:13;2.70;;;1.90;;
10882;SDS011;5494;51.796;10.952;2024-02-26T00:10:41;2.23;;;1.87;;
10882;SDS011;5494;51.796;10.952;2024-02-26T00:13:09;2.53;;;1.37;;
10882;SDS011;5494;51.796;10.952;2024-02-26T00:15:38;2.47;;;1.50;;
10882;SDS011;5494;51.796;10.952;2024-02-26T00:18:07;1.67;;;1.23;;
10882;SDS011;5494;51.796;10.952;2024-02-26T00:20:35;2.60;;;1.63;;
10882;SDS011;5494;51.796;10.952;2024-02-26T00:23:05;3.40;;;2.10;;
10882;SDS011;5494;51.796;10.952;2024-02-26T00:25:33;3.47;;;1.87;;
10882;SDS011;5494;51.796;10.952;2024-02-26T00:28:02;4.40;;;2.50;;
10882;SDS011;5494;51.796;10.952;2024-02-26T00:30:31;3.13;;;1.80;;
10882;SDS011;5494;51.796;10.952;2024-02-26T00:32:59;4.40;;;2.23;;
10882;SDS011;5494;51.796;10.952;2024-02-26T00:35:28;3.53;;;2.10;;
10882;SDS011;5494;51.796;10.952;2024-02-26T00:37:56;2.63;;;1.83;;
10882;SDS011;5494;51.796;10.952;2024-02-26T00:40:25;3.07;;;1.53;;
10882;SDS011;5494;51.796;10.952;2024-02-26T00:42:53;2.83;;;1.90;;
10882;SDS011;5494;51.796;10.952;2024-02-26T00:45:21;2.40;;;1.73;;
10882;SDS011;5494;51.796;10.952;2024-02-26T00:47:49;2.27;;;1.37;;
10882;SDS011;5494;51.796;10.952;2024-02-26T00:50:17;3.30;;;1.70;;
10882;SDS011;5494;51.796;10.952;2024-02-26T00:52:46;2.00;;;1.40;;
10882;SDS011;5494;51.796;10.952;2024-02-26T00:55:14;1.90;;;1.10;;
10882;SDS011;5494;51.796;10.952;2024-02-26T00:57:43;2.23;;;1.20;;
10882;SDS011;5494;51.796;10.952;2024-02-26T01:00:11;1.17;;;0.90;;
10882;SDS011;5494;51.796;10.952;2024-02-26T01:02:41;1.60;;;0.80;;
10882;SDS011;5494;51.796;10.952;2024-02-26T01:05:09;0.90;;;0.80;;
10882;SDS011;5494;51.796;10.952;2024-02-26T01:07:37;1.33;;;0.80;;
10882;SDS011;5494;51.796;10.952;2024-02-26T01:10:08;0.90;;;0.80;;
10882;SDS011;5494;51.796;10.952;2024-02-26T01:12:36;1.13;;;0.80;;
10882;SDS011;5494;51.796;10.952;2024-02-26T01:15:05;1.97;;;1.00;;
10882;SDS011;5494;51.796;10.952;2024-02-26T01:17:35;1.35;;;1.00;;
10882;SDS011;5494;51.796;10.952;2024-02-26T01:20:03;1.10;;;0.90;;
10882;SDS011;5494;51.796;10.952;2024-02-26T01:22:32;2.60;;;0.70;;
10882;SDS011;5494;51.796;10.952;2024-02-26T01:25:00;1.17;;;0.90;;
10882;SDS011;5494;51.796;10.952;2024-02-26T01:27:30;0.90;;;0.70;;
10882;SDS011;5494;51.796;10.952;2024-02-26T01:29:58;0.80;;;0.70;;
10882;SDS011;5494;51.796;10.952;2024-02-26T01:32:26;1.17;;;0.70;;
10882;SDS011;5494;51.796;10.952;2024-02-26T01:34:57;1.13;;;0.90;;
10882;SDS011;5494;51.796;10.952;2024-02-26T01:37:25;1.63;;;0.80;;
10882;SDS011;5494;51.796;10.952;2024-02-26T01:39:53;0.90;;;0.60;;
10882;SDS011;5494;51.796;10.952;2024-02-26T01:42:21;0.90;;;0.80;;
10882;SDS011;5494;51.796;10.952;2024-02-26T01:44:50;0.93;;;0.70;;
10882;SDS011;5494;51.796;10.952;2024-02-26T01:47:18;1.43;;;0.80;;
10882;SDS011;5494;51.796;10.952;2024-02-26T01:49:46;0.53;;;0.53;;
10882;SDS011;5494;51.796;10.952;2024-02-26T01:52:15;1.47;;;0.90;;
10882;SDS011;5494;51.796;10.952;2024-02-26T01:54:44;0.90;;;0.80;;
10882;SDS011;5494;51.796;10.952;2024-02-26T01:57:13;1.67;;;0.80;;
10882;SDS011;5494;51.796;10.952;2024-02-26T01:59:43;1.40;;;0.87;;
10882;SDS011;5494;51.796;10.952;2024-02-26T02:02:13;1.53;;;0.97;;
10882;SDS011;5494;51.796;10.952;2024-02-26T02:04:43;1.20;;;0.87;;
10882;SDS011;5494;51.796;10.952;2024-02-26T02:07:12;1.03;;;0.77;;
10882;SDS011;5494;51.796;10.952;2024-02-26T02:09:40;1.23;;;0.97;;
10882;SDS011;5494;51.796;10.952;2024-02-26T02:12:11;1.30;;;1.03;;
10882;SDS011;5494;51.796;10.952;2024-02-26T02:14:39;1.47;;;1.00;;
10882;SDS011;5494;51.796;10.952;2024-02-26T02:17:08;2.30;;;1.23;;
10882;SDS011;5494;51.796;10.952;2024-02-26T02:19:38;1.63;;;0.83;;
10882;SDS011;5494;51.796;10.952;2024-02-26T02:22:07;1.40;;;0.90;;
10882;SDS011;5494;51.796;10.952;2024-02-26T02:24:35;1.00;;;0.77;;
10882;SDS011;5494;51.796;10.952;2024-02-26T02:27:03;0.80;;;0.80;;
10882;SDS011;5494;51.796;10.952;2024-02-26T02:29:32;1.50;;;0.90;;
10882;SDS011;5494;51.796;10.952;2024-02-26T02:32:01;1.30;;;0.80;;
10882;SDS011;5494;51.796;10.952;2024-02-26T02:34:30;1.20;;;0.70;;
10882;SDS011;5494;51.796;10.952;2024-02-26T02:37:00;1.03;;;0.63;;
10882;SDS011;5494;51.796;10.952;2024-02-26T02:39:29;0.87;;;0.70;;
10882;SDS011;5494;51.796;10.952;2024-02-26T02:41:57;2.10;;;0.77;;
10882;SDS011;5494;51.796;10.952;2024-02-26T02:44:25;1.60;;;0.80;;
10882;SDS011;5494;51.796;10.952;2024-02-26T02:46:53;1.07;;;0.63;;
10882;SDS011;5494;51.796;10.952;2024-02-26T02:49:21;1.30;;;0.80;;
10882;SDS011;5494;51.796;10.952;2024-02-26T02:51:50;1.53;;;0.90;;
10882;SDS011;5494;51.796;10.952;2024-02-26T02:54:19;1.07;;;0.90;;
10882;SDS011;5494;51.796;10.952;2024-02-26T02:56:49;3.17;;;0.80;;
10882;SDS011;5494;51.796;10.952;2024-02-26T02:59:17;1.93;;;1.00;;
10882;SDS011;5494;51.796;10.952;2024-02-26T03:01:45;1.33;;;0.87;;
10882;SDS011;5494;51.796;10.952;2024-02-26T03:04:14;1.93;;;1.23;;
10882;SDS011;5494;51.796;10.952;2024-02-26T03:06:42;1.53;;;1.10;;
10882;SDS011;5494;51.796;10.952;2024-02-26T03:09:10;2.45;;;1.00;;
10882;SDS011;5494;51.796;10.952;2024-02-26T03:11:38;2.30;;;1.37;;
10882;SDS011;5494;51.796;10.952;2024-02-26T03:14:08;1.37;;;1.27;;
10882;SDS011;5494;51.796;10.952;2024-02-26T03:16:36;1.30;;;1.10;;
10882;SDS011;5494;51.796;10.952;2024-02-26T03:19:04;1.47;;;1.20;;
10882;SDS011;5494;51.796;10.952;2024-02-26T03:21:32;1.90;;;1.30;;
10882;SDS011;5494;51.796;10.952;2024-02-26T03:24:00;2.37;;;1.40;;
10882;SDS011;5494;51.796;10.952;2024-02-26T03:26:28;2.25;;;1.58;;
10882;SDS011;5494;51.796;10.952;2024-02-26T03:28:57;2.23;;;2.03;;
10882;SDS011;5494;51.796;10.952;2024-02-26T03:31:26;3.57;;;2.77;;
10882;SDS011;5494;51.796;10.952;2024-02-26T03:33:55;2.70;;;2.50;;
10882;SDS011;5494;51.796;10.952;2024-02-26T03:36:23;2.90;;;2.30;;
10882;SDS011;5494;51.796;10.952;2024-02-26T03:38:51;2.40;;;2.10;;
10882;SDS011;5494;51.796;10.952;2024-02-26T03:41:19;2.90;;;2.50;;
10882;SDS011;5494;51.796;10.952;2024-02-26T03:43:47;3.33;;;2.80;;
10882;SDS011;5494;51.796;10.952;2024-02-26T03:46:15;4.30;;;3.07;;
10882;SDS011;5494;51.796;10.952;2024-02-26T03:48:44;2.97;;;2.15;;
10882;SDS011;5494;51.796;10.952;2024-02-26T03:51:12;3.77;;;2.10;;
10882;SDS011;5494;51.796;10.952;2024-02-26T03:53:40;2.30;;;2.00;;
10882;SDS011;5494;51.796;10.952;2024-02-26T03:56:09;3.20;;;2.33;;
10882;SDS011;5494;51.796;10.952;2024-02-26T03:58:39;2.80;;;2.40;;
10882;SDS011;5494;51.796;10.952;2024-02-26T04:01:08;2.57;;;1.97;;
10882;SDS011;5494;51.796;10.952;2024-02-26T04:03:36;2.30;;;2.10;;
10882;SDS011;5494;51.796;10.952;2024-02-26T04:06:08;5.27;;;2.37;;
10882;SDS011;5494;51.796;10.952;2024-02-26T04:08:37;4.00;;;1.98;;
10882;SDS011;5494;51.796;10.952;2024-02-26T04:11:05;3.30;;;2.43;;
10882;SDS011;5494;51.796;10.952;2024-02-26T04:13:34;3.93;;;2.90;;
10882;SDS011;5494;51.796;10.952;2024-02-26T04:16:04;6.00;;;3.80;;
10882;SDS011;5494;51.796;10.952;2024-02-26T04:18:33;4.07;;;3.00;;
10882;SDS011;5494;51.796;10.952;2024-02-26T04:21:01;7.33;;;3.80;;
10882;SDS011;5494;51.796;10.952;2024-02-26T04:23:35;7.17;;;3.93;;
10882;SDS011;5494;51.796;10.952;2024-02-26T04:26:03;5.67;;;4.37;;
10882;SDS011;5494;51.796;10.952;2024-02-26T04:28:32;8.45;;;5.18;;
10882;SDS011;5494;51.796;10.952;2024-02-26T04:31:00;7.05;;;4.55;;
10882;SDS011;5494;51.796;10.952;2024-02-26T04:33:28;8.13;;;5.30;;
10882;SDS011;5494;51.796;10.952;2024-02-26T04:35:56;8.73;;;6.20;;
10882;SDS011;5494;51.796;10.952;2024-02-26T04:38:24;12.50;;;7.03;;
10882;SDS011;5494;51.796;10.952;2024-02-26T04:40:54;9.03;;;6.57;;
10882;SDS011;5494;51.796;10.952;2024-02-26T04:43:22;12.27;;;7.70;;
10882;SDS011;5494;51.796;10.952;2024-02-26T04:45:50;11.23;;;7.70;;
10882;SDS011;5494;51.796;10.952;2024-02-26T04:48:18;14.97;;;8.83;;
10882;SDS011;5494;51.796;10.952;2024-02-26T04:50:47;13.33;;;8.30;;
10882;SDS011;5494;51.796;10.952;2024-02-26T04:53:15;14.33;;;8.90;;
10882;SDS011;5494;51.796;10.952;2024-02-26T04:55:44;10.43;;;7.63;;
10882;SDS011;5494;51.796;10.952;2024-02-26T04:58:13;12.17;;;7.63;;
10882;SDS011;5494;51.796;10.952;2024-02-26T05:00:41;14.07;;;9.30;;
10882;SDS011;5494;51.796;10.952;2024-02-26T05:03:09;14.87;;;9.90;;
10882;SDS011;5494;51.796;10.952;2024-02-26T05:05:39;13.17;;;9.17;;
10882;SDS011;5494;51.796;10.952;2024-02-26T05:08:08;13.20;;;9.43;;
10882;SDS011;5494;51.796;10.952;2024-02-26T05:10:36;14.43;;;9.77;;
10882;SDS011;5494;51.796;10.952;2024-02-26T05:13:07;14.83;;;10.23;;
10882;SDS011;5494;51.796;10.952;2024-02-26T05:15:36;15.40;;;9.63;;
10882;SDS011;5494;51.796;10.952;2024-02-26T05:18:04;19.33;;;11.73;;
10882;SDS011;5494;51.796;10.952;2024-02-26T05:20:34;18.17;;;12.53;;
10882;SDS011;5494;51.796;10.952;2024-02-26T05:23:04;18.90;;;11.63;;
10882;SDS011;5494;51.796;10.952;2024-02-26T05:25:32;16.30;;;11.23;;
10882;SDS011;5494;51.796;10.952;2024-02-26T05:28:00;17.90;;;11.60;;
10882;SDS011;5494;51.796;10.952;2024-02-26T05:30:28;16.73;;;11.27;;
10882;SDS011;5494;51.796;10.952;2024-02-26T05:32:57;19.40;;;12.30;;
10882;SDS011;5494;51.796;10.952;2024-02-26T05:35:25;19.57;;;11.50;;
10882;SDS011;5494;51.796;10.952;2024-02-26T05:37:54;19.50;;;11.60;;
10882;SDS011;5494;51.796;10.952;2024-02-26T05:40:21;18.93;;;12.30;;
10882;SDS011;5494;51.796;10.952;2024-02-26T05:42:49;17.93;;;11.40;;
10882;SDS011;5494;51.796;10.952;2024-02-26T05:45:18;16.47;;;11.40;;
10882;SDS011;5494;51.796;10.952;2024-02-26T05:47:46;20.07;;;13.13;;
10882;SDS011;5494;51.796;10.952;2024-02-26T05:50:17;17.47;;;11.43;;
10882;SDS011;5494;51.796;10.952;2024-02-26T05:52:45;17.23;;;11.80;;
10882;SDS011;5494;51.796;10.952;2024-02-26T05:55:13;18.53;;;12.00;;
10882;SDS011;5494;51.796;10.952;2024-02-26T05:57:41;16.63;;;11.23;;
10882;SDS011;5494;51.796;10.952;2024-02-26T06:00:10;19.07;;;11.07;;
10882;SDS011;5494;51.796;10.952;2024-02-26T06:02:41;19.40;;;11.67;;
10882;SDS011;5494;51.796;10.952;2024-02-26T06:05:09;19.70;;;11.33;;
10882;SDS011;5494;51.796;10.952;2024-02-26T06:07:38;19.40;;;11.43;;
10882;SDS011;5494;51.796;10.952;2024-02-26T06:10:07;16.70;;;12.00;;
10882;SDS011;5494;51.796;10.952;2024-02-26T06:12:35;17.87;;;11.93;;
10882;SDS011;5494;51.796;10.952;2024-02-26T06:15:03;17.27;;;11.77;;
10882;SDS011;5494;51.796;10.952;2024-02-26T06:17:32;13.80;;;9.93;;
10882;SDS011;5494;51.796;10.952;2024-02-26T06:20:00;13.03;;;9.10;;
10882;SDS011;5494;51.796;10.952;2024-02-26T06:22:30;17.10;;;10.20;;
10882;SDS011;5494;51.796;10.952;2024-02-26T06:25:00;13.00;;;10.77;;
10882;SDS011;5494;51.796;10.952;2024-02-26T06:27:28;13.47;;;11.17;;
10882;SDS011;5494;51.796;10.952;2024-02-26T06:29:56;14.53;;;10.37;;
10882;SDS011;5494;51.796;10.952;2024-02-26T06:32:24;12.37;;;9.13;;
10882;SDS011;5494;51.796;10.952;2024-02-26T06:34:54;12.27;;;9.13;;
10882;SDS011;5494;51.796;10.952;2024-02-26T06:37:23;11.30;;;8.60;;
10882;SDS011;5494;51.796;10.952;2024-02-26T06:39:51;12.97;;;9.77;;
10882;SDS011;5494;51.796;10.952;2024-02-26T06:42:20;12.57;;;9.77;;
10882;SDS011;5494;51.796;10.952;2024-02-26T06:44:49;13.10;;;9.50;;
10882;SDS011;5494;51.796;10.952;2024-02-26T06:47:17;13.40;;;9.80;;
10882;SDS011;5494;51.796;10.952;2024-02-26T06:49:45;12.90;;;9.50;;
10882;SDS011;5494;51.796;10.952;2024-02-26T06:52:14;14.43;;;9.77;;
10882;SDS011;5494;51.796;10.952;2024-02-26T06:54:42;13.07;;;9.50;;
10882;SDS011;5494;51.796;10.952;2024-02-26T06:57:11;12.30;;;10.17;;
10882;SDS011;5494;51.796;10.952;2024-02-26T06:59:41;12.47;;;9.23;;
10882;SDS011;5494;51.796;10.952;2024-02-26T07:02:12;13.80;;;10.10;;
10882;SDS011;5494;51.796;10.952;2024-02-26T07:04:42;12.37;;;9.50;;
10882;SDS011;5494;51.796;10.952;2024-02-26T07:07:10;13.97;;;9.63;;
10882;SDS011;5494;51.796;10.952;2024-02-26T07:09:41;11.60;;;8.87;;
10882;SDS011;5494;51.796;10.952;2024-02-26T07:12:09;11.73;;;9.03;;
10882;SDS011;5494;51.796;10.952;2024-02-26T07:14:37;11.10;;;8.53;;
10882;SDS011;5494;51.796;10.952;2024-02-26T07:17:10;15.80;;;10.20;;
10882;SDS011;5494;51.796;10.952;2024-02-26T07:19:38;14.83;;;11.40;;
10882;SDS011;5494;51.796;10.952;2024-02-26T07:22:07;14.67;;;9.27;;
10882;SDS011;5494;51.796;10.952;2024-02-26T07:24:35;15.17;;;9.43;;
10882;SDS011;5494;51.796;10.952;2024-02-26T07:27:03;9.80;;;7.97;;
10882;SDS011;5494;51.796;10.952;2024-02-26T07:29:31;13.20;;;10.17;;
10882;SDS011;5494;51.796;10.952;2024-02-26T07:31:59;12.93;;;9.43;;
10882;SDS011;5494;51.796;10.952;2024-02-26T07:34:29;15.83;;;9.13;;
10882;SDS011;5494;51.796;10.952;2024-02-26T07:36:57;11.37;;;8.83;;
10882;SDS011;5494;51.796;10.952;2024-02-26T07:39:25;14.43;;;10.07;;
10882;SDS011;5494;51.796;10.952;2024-02-26T07:41:53;11.20;;;8.80;;
10882;SDS011;5494;51.796;10.952;2024-02-26T07:44:22;10.23;;;8.33;;
10882;SDS011;5494;51.796;10.952;2024-02-26T07:46:50;13.00;;;8.90;;
10882;SDS011;5494;51.796;10.952;2024-02-26T07:49:18;15.13;;;9.03;;
10882;SDS011;5494;51.796;10.952;2024-02-26T07:51:48;14.63;;;8.90;;
10882;SDS011;5494;51.796;10.952;2024-02-26T07:54:16;11.90;;;8.80;;
10882;SDS011;5494;51.796;10.952;2024-02-26T07:56:45;14.27;;;8.40;;
10882;SDS011;5494;51.796;10.952;2024-02-26T07:59:13;10.63;;;8.33;;
10882;SDS011;5494;51.796;10.952;2024-02-26T08:01:41;10.70;;;9.03;;
10882;SDS011;5494;51.796;10.952;2024-02-26T08:04:13;12.83;;;9.47;;
10882;SDS011;5494;51.796;10.952;2024-02-26T08:06:41;13.87;;;9.83;;
10882;SDS011;5494;51.796;10.952;2024-02-26T08:09:10;12.03;;;8.80;;
10882;SDS011;5494;51.796;10.952;2024-02-26T08:11:39;14.00;;;9.83;;
10882;SDS011;5494;51.796;10.952;2024-02-26T08:14:07;13.10;;;9.90;;
10882;SDS011;5494;51.796;10.952;2024-02-26T08:16:35;15.17;;;10.67;;
10882;SDS011;5494;51.796;10.952;2024-02-26T08:19:03;12.90;;;9.30;;
10882;SDS011;5494;51.796;10.952;2024-02-26T08:21:32;14.63;;;9.93;;
10882;SDS011;5494;51.796;10.952;2024-02-26T08:24:00;12.57;;;8.90;;
10882;SDS011;5494;51.796;10.952;2024-02-26T08:26:29;11.63;;;8.97;;
10882;SDS011;5494;51.796;10.952;2024-02-26T08:28:57;12.43;;;9.40;;
10882;SDS011;5494;51.796;10.952;2024-02-26T08:31:25;13.23;;;9.87;;
10882;SDS011;5494;51.796;10.952;2024-02-26T08:33:54;11.93;;;9.17;;
10882;SDS011;5494;51.796;10.952;2024-02-26T08:36:22;12.13;;;9.30;;
10882;SDS011;5494;51.796;10.952;2024-02-26T08:38:50;12.23;;;9.37;;
10882;SDS011;5494;51.796;10.952;2024-02-26T08:41:18;14.30;;;10.13;;
10882;SDS011;5494;51.796;10.952;2024-02-26T08:43:47;11.90;;;9.80;;
10882;SDS011;5494;51.796;10.952;2024-02-26T08:46:15;14.07;;;10.00;;
10882;SDS011;5494;51.796;10.952;2024-02-26T08:48:43;12.53;;;10.60;;
10882;SDS011;5494;51.796;10.952;2024-02-26T08:51:11;15.63;;;13.13;;
10882;SDS011;5494;51.796;10.952;2024-02-26T08:53:39;17.50;;;12.73;;
10882;SDS011;5494;51.796;10.952;2024-02-26T08:56:09;15.20;;;11.93;;
10882;SDS011;5494;51.796;10.952;2024-02-26T08:58:44;17.43;;;12.10;;
10882;SDS011;5494;51.796;10.952;2024-02-26T09:01:16;15.90;;;11.60;;
10882;SDS011;5494;51.796;10.952;2024-02-26T09:03:44;17.77;;;13.33;;
10882;SDS011;5494;51.796;10.952;2024-02-26T09:06:14;17.40;;;12.50;;
10882;SDS011;5494;51.796;10.952;2024-02-26T09:08:43;18.20;;;12.97;;
10882;SDS011;5494;51.796;10.952;2024-02-26T09:11:11;15.57;;;12.50;;
10882;SDS011;5494;51.796;10.952;2024-02-26T09:13:39;15.23;;;12.67;;
10882;SDS011;5494;51.796;10.952;2024-02-26T09:16:08;14.67;;;12.00;;
10882;SDS011;5494;51.796;10.952;2024-02-26T09:18:37;15.63;;;12.37;;
10882;SDS011;5494;51.796;10.952;2024-02-26T09:21:05;16.63;;;13.03;;
10882;SDS011;5494;51.796;10.952;2024-02-26T09:23:34;21.30;;;14.23;;
10882;SDS011;5494;51.796;10.952;2024-02-26T09:26:04;23.43;;;14.67;;
10882;SDS011;5494;51.796;10.952;2024-02-26T09:28:32;18.37;;;12.50;;
10882;SDS011;5494;51.796;10.952;2024-02-26T09:31:03;18.07;;;12.57;;
10882;SDS011;5494;51.796;10.952;2024-02-26T09:33:32;15.67;;;11.47;;
10882;SDS011;5494;51.796;10.952;2024-02-26T09:36:02;12.57;;;10.33;;
10882;SDS011;5494;51.796;10.952;2024-02-26T09:38:32;11.97;;;9.60;;
10882;SDS011;5494;51.796;10.952;2024-02-26T09:41:17;13.27;;;9.27;;
10882;SDS011;5494;51.796;10.952;2024-02-26T09:43:45;12.10;;;9.07;;
10882;SDS011;5494;51.796;10.952;2024-02-26T09:46:18;12.73;;;9.13;;
10882;SDS011;5494;51.796;10.952;2024-02-26T09:48:47;12.23;;;9.97;;
10882;SDS011;5494;51.796;10.952;2024-02-26T09:51:16;11.03;;;8.83;;
10882;SDS011;5494;51.796;10.952;2024-02-26T09:53:46;15.70;;;9.40;;
10882;SDS011;5494;51.796;10.952;2024-02-26T09:56:19;11.40;;;9.23;;
10882;SDS011;5494;51.796;10.952;2024-02-26T09:58:48;12.67;;;9.33;;
10882;SDS011;5494;51.796;10.952;2024-02-26T10:01:21;14.07;;;8.33;;
10882;SDS011;5494;51.796;10.952;2024-02-26T10:03:51;11.73;;;8.93;;
10882;SDS011;5494;51.796;10.952;2024-02-26T10:06:26;11.17;;;8.83;;
10882;SDS011;5494;51.796;10.952;2024-02-26T10:08:55;10.37;;;8.10;;
10882;SDS011;5494;51.796;10.952;2024-02-26T10:11:25;11.23;;;9.30;;
10882;SDS011;5494;51.796;10.952;2024-02-26T10:13:54;12.07;;;8.80;;
10882;SDS011;5494;51.796;10.952;2024-02-26T10:16:23;11.83;;;8.73;;
10882;SDS011;5494;51.796;10.952;2024-02-26T10:18:52;10.67;;;8.93;;
10882;SDS011;5494;51.796;10.952;2024-02-26T10:21:26;11.43;;;8.43;;
10882;SDS011;5494;51.796;10.952;2024-02-26T10:23:55;11.30;;;8.90;;
10882;SDS011;5494;51.796;10.952;2024-02-26T10:26:23;10.17;;;8.20;;
10882;SDS011;5494;51.796;10.952;2024-02-26T10:28:51;13.23;;;9.03;;
10882;SDS011;5494;51.796;10.952;2024-02-26T10:31:21;9.97;;;8.50;;
10882;SDS011;5494;51.796;10.952;2024-02-26T10:33:49;12.27;;;8.87;;
10882;SDS011;5494;51.796;10.952;2024-02-26T10:36:18;12.27;;;8.70;;
10882;SDS011;5494;51.796;10.952;2024-02-26T10:38:49;9.50;;;7.70;;
10882;SDS011;5494;51.796;10.952;2024-02-26T10:41:20;10.90;;;8.20;;
10882;SDS011;5494;51.796;10.952;2024-02-26T10:43:50;8.60;;;7.20;;
10882;SDS011;5494;51.796;10.952;2024-02-26T10:46:18;9.77;;;7.33;;
10882;SDS011;5494;51.796;10.952;2024-02-26T10:48:49;9.83;;;7.50;;
10882;SDS011;5494;51.796;10.952;2024-02-26T10:51:18;9.30;;;6.77;;
10882;SDS011;5494;51.796;10.952;2024-02-26T10:53:56;9.63;;;7.87;;
10882;SDS011;5494;51.796;10.952;2024-02-26T10:56:28;10.07;;;7.90;;
10882;SDS011;5494;51.796;10.952;2024-02-26T10:58:56;9.67;;;7.40;;
10882;SDS011;5494;51.796;10.952;2024-02-26T11:01:26;9.43;;;7.77;;
10882;SDS011;5494;51.796;10.952;2024-02-26T11:03:59;8.80;;;6.93;;
10882;SDS011;5494;51.796;10.952;2024-02-26T11:06:28;9.97;;;7.70;;
10882;SDS011;5494;51.796;10.952;2024-02-26T11:08:58;10.93;;;7.13;;
10882;SDS011;5494;51.796;10.952;2024-02-26T11:11:28;10.33;;;7.33;;
10882;SDS011;5494;51.796;10.952;2024-02-26T11:14:01;10.87;;;7.77;;
10882;SDS011;5494;51.796;10.952;2024-02-26T11:16:30;10.00;;;6.73;;
10882;SDS011;5494;51.796;10.952;2024-02-26T11:19:02;10.10;;;8.10;;
10882;SDS011;5494;51.796;10.952;2024-02-26T11:21:31;11.33;;;7.10;;
10882;SDS011;5494;51.796;10.952;2024-02-26T11:24:06;13.00;;;7.47;;
10882;SDS011;5494;51.796;10.952;2024-02-26T11:26:39;9.03;;;7.03;;
10882;SDS011;5494;51.796;10.952;2024-02-26T11:29:25;8.73;;;7.67;;
10882;SDS011;5494;51.796;10.952;2024-02-26T11:32:12;10.10;;;7.73;;
10882;SDS011;5494;51.796;10.952;2024-02-26T11:34:41;10.90;;;8.63;;
10882;SDS011;5494;51.796;10.952;2024-02-26T11:37:10;8.93;;;7.63;;
10882;SDS011;5494;51.796;10.952;2024-02-26T11:39:41;9.17;;;7.43;;
10882;SDS011;5494;51.796;10.952;2024-02-26T11:42:15;11.87;;;8.03;;
10882;SDS011;5494;51.796;10.952;2024-02-26T11:44:44;11.57;;;8.03;;
10882;SDS011;5494;51.796;10.952;2024-02-26T11:47:13;9.83;;;8.53;;
10882;SDS011;5494;51.796;10.952;2024-02-26T11:49:46;9.03;;;7.73;;
10882;SDS011;5494;51.796;10.952;2024-02-26T11:52:15;9.90;;;7.87;;
10882;SDS011;5494;51.796;10.952;2024-02-26T11:54:46;11.90;;;8.00;;
10882;SDS011;5494;51.796;10.952;2024-02-26T11:57:22;10.27;;;8.10;;
10882;SDS011;5494;51.796;10.952;2024-02-26T11:59:53;9.47;;;8.20;;
10882;SDS011;5494;51.796;10.952;2024-02-26T12:02:37;10.40;;;8.30;;
10882;SDS011;5494;51.796;10.952;2024-02-26T12:05:14;10.87;;;8.23;;
10882;SDS011;5494;51.796;10.952;2024-02-26T12:07:45;9.53;;;7.67;;
10882;SDS011;5494;51.796;10.952;2024-02-26T12:10:25;9.73;;;8.53;;
10882;SDS011;5494;51.796;10.952;2024-02-26T12:12:58;9.77;;;8.30;;
10882;SDS011;5494;51.796;10.952;2024-02-26T12:15:31;9.80;;;8.50;;
10882;SDS011;5494;51.796;10.952;2024-02-26T12:18:01;12.30;;;8.73;;
10882;SDS011;5494;51.796;10.952;2024-02-26T12:20:32;10.40;;;8.83;;
10882;SDS011;5494;51.796;10.952;2024-02-26T12:23:00;13.93;;;9.60;;
10882;SDS011;5494;51.796;10.952;2024-02-26T12:25:31;12.77;;;8.97;;
10882;SDS011;5494;51.796;10.952;2024-02-26T12:28:00;11.70;;;8.90;;
10882;SDS011;5494;51.796;10.952;2024-02-26T12:30:29;11.03;;;8.67;;
10882;SDS011;5494;51.796;10.952;2024-02-26T12:32:59;11.37;;;8.70;;
10882;SDS011;5494;51.796;10.952;2024-02-26T12:35:29;12.50;;;8.87;;
10882;SDS011;5494;51.796;10.952;2024-02-26T12:37:58;11.27;;;9.43;;
10882;SDS011;5494;51.796;10.952;2024-02-26T12:40:27;13.60;;;9.83;;
10882;SDS011;5494;51.796;10.952;2024-02-26T12:42:57;11.70;;;9.73;;
10882;SDS011;5494;51.796;10.952;2024-02-26T12:45:25;13.17;;;9.83;;
10882;SDS011;5494;51.796;10.952;2024-02-26T12:47:54;10.83;;;9.57;;
10882;SDS011;5494;51.796;10.952;2024-02-26T12:50:23;10.57;;;9.47;;
10882;SDS011;5494;51.796;10.952;2024-02-26T12:52:53;14.03;;;9.83;;
10882;SDS011;5494;51.796;10.952;2024-02-26T12:55:21;12.80;;;9.60;;
10882;SDS011;5494;51.796;10.952;2024-02-26T12:57:49;13.20;;;9.90;;
10882;SDS011;5494;51.796;10.952;2024-02-26T13:00:22;11.67;;;10.00;;
10882;SDS011;5494;51.796;10.952;2024-02-26T13:02:54;11.83;;;10.30;;
10882;SDS011;5494;51.796;10.952;2024-02-26T13:05:23;12.33;;;9.73;;
10882;SDS011;5494;51.796;10.952;2024-02-26T13:07:52;10.13;;;9.10;;
10882;SDS011;5494;51.796;10.952;2024-02-26T13:10:21;10.73;;;9.47;;
10882;SDS011;5494;51.796;10.952;2024-02-26T13:12:49;14.07;;;10.97;;
10882;SDS011;5494;51.796;10.952;2024-02-26T13:15:18;10.33;;;9.23;;
10882;SDS011;5494;51.796;10.952;2024-02-26T13:17:49;10.80;;;9.27;;
10882;SDS011;5494;51.796;10.952;2024-02-26T13:20:26;16.00;;;9.67;;
10882;SDS011;5494;51.796;10.952;2024-02-26T13:23:02;11.87;;;9.73;;
10882;SDS011;5494;51.796;10.952;2024-02-26T13:25:31;12.13;;;8.77;;
10882;SDS011;5494;51.796;10.952;2024-02-26T13:28:06;12.07;;;9.73;;
10882;SDS011;5494;51.796;10.952;2024-02-26T13:30:36;12.00;;;9.53;;
10882;SDS011;5494;51.796;10.952;2024-02-26T13:33:09;12.60;;;9.40;;
10882;SDS011;5494;51.796;10.952;2024-02-26T13:35:39;10.77;;;8.87;;
10882;SDS011;5494;51.796;10.952;2024-02-26T13:38:07;11.17;;;9.30;;
10882;SDS011;5494;51.796;10.952;2024-02-26T13:40:35;12.87;;;9.60;;
10882;SDS011;5494;51.796;10.952;2024-02-26T13:43:04;11.37;;;9.53;;
10882;SDS011;5494;51.796;10.952;2024-02-26T13:45:33;13.43;;;9.83;;
10882;SDS011;5494;51.796;10.952;2024-02-26T13:48:04;11.43;;;10.10;;
10882;SDS011;5494;51.796;10.952;2024-02-26T13:50:37;11.40;;;9.23;;
10882;SDS011;5494;51.796;10.952;2024-02-26T13:53:06;10.30;;;8.53;;
10882;SDS011;5494;51.796;10.952;2024-02-26T13:55:34;10.90;;;8.90;;
10882;SDS011;5494;51.796;10.952;2024-02-26T13:58:02;11.63;;;8.87;;
10882;SDS011;5494;51.796;10.952;2024-02-26T14:00:31;13.53;;;9.23;;
10882;SDS011;5494;51.796;10.952;2024-02-26T14:03:00;11.03;;;8.80;;
10882;SDS011;5494;51.796;10.952;2024-02-26T14:05:30;9.17;;;8.17;;
10882;SDS011;5494;51.796;10.952;2024-02-26T14:07:59;10.30;;;8.60;;
10882;SDS011;5494;51.796;10.952;2024-02-26T14:10:28;11.00;;;8.70;;
10882;SDS011;5494;51.796;10.952;2024-02-26T14:12:57;11.23;;;8.67;;
10882;SDS011;5494;51.796;10.952;2024-02-26T14:15:26;11.87;;;9.57;;
10882;SDS011;5494;51.796;10.952;2024-02-26T14:17:56;10.97;;;8.63;;
10882;SDS011;5494;51.796;10.952;2024-02-26T14:20:25;16.43;;;9.40;;
10882;SDS011;5494;51.796;10.952;2024-02-26T14:22:53;12.97;;;9.57;;
10882;SDS011;5494;51.796;10.952;2024-02-26T14:25:23;12.43;;;9.60;;
10882;SDS011;5494;51.796;10.952;2024-02-26T14:27:55;12.13;;;9.17;;
10882;SDS011;5494;51.796;10.952;2024-02-26T14:30:23;15.03;;;10.07;;
10882;SDS011;5494;51.796;10.952;2024-02-26T14:32:52;11.40;;;9.17;;
10882;SDS011;5494;51.796;10.952;2024-02-26T14:35:21;12.33;;;9.97;;
10882;SDS011;5494;51.796;10.952;2024-02-26T14:37:49;13.67;;;9.67;;
10882;SDS011;5494;51.796;10.952;2024-02-26T14:40:18;12.80;;;10.87;;
10882;SDS011;5494;51.796;10.952;2024-02-26T14:42:47;14.47;;;10.93;;
10882;SDS011;5494;51.796;10.952;2024-02-26T14:45:16;15.43;;;10.70;;
10882;SDS011;5494;51.796;10.952;2024-02-26T14:47:44;13.97;;;11.50;;
10882;SDS011;5494;51.796;10.952;2024-02-26T14:50:13;15.63;;;12.13;;